Time;durP1;ratioP1;P1;durP2;ratioP2;P2;SDS_P1;SDS_P2;PMS_P1;PMS_P2;Temp;Humidity;BMP_temperature;BMP_pressure;BME280_temperature;BME280_humidity;BME280_pressure;Samples;Min_cycle;Max_cycle;Signal;HPM_P1;HPM_P2
2022/12/03 15:14:40;;;;;;;153.73;40.20;;;;;;;-1.26;100.00;101248.09;5571458;27;20948321;-88
2022/12/03 15:17:44;;;;;;;124.47;39.15;;;;;;;-1.23;100.00;101242.13;6238278;28;20527;-88
2022/12/03 15:20:46;;;;;;;105.03;36.85;;;;;;;-1.14;100.00;101249.59;6249764;28;20091;-88
2022/12/03 15:23:48;;;;;;;95.65;35.20;;;;;;;-1.10;100.00;101244.41;6247181;28;20042;-89
2022/12/03 15:26:51;;;;;;;85.72;31.70;;;;;;;-1.04;100.00;101240.06;6241438;28;20094;-88
2022/12/03 15:29:53;;;;;;;75.15;29.63;;;;;;;-0.99;100.00;101243.38;6247721;28;20049;-89
2022/12/03 15:32:55;;;;;;;73.90;27.75;;;;;;;-0.98;100.00;101243.31;6226889;28;20064;-90
2022/12/03 15:35:57;;;;;;;76.20;27.92;;;;;;;-1.00;100.00;101249.31;6256173;28;20037;-88
2022/12/03 15:38:59;;;;;;;71.10;27.23;;;;;;;-0.97;100.00;101254.31;6233862;28;20135;-88
2022/12/03 15:42:01;;;;;;;72.15;27.38;;;;;;;-0.94;100.00;101250.03;6238876;28;20073;-88
2022/12/03 15:45:04;;;;;;;62.75;26.77;;;;;;;-0.91;100.00;101246.59;6248591;28;20183;-88
2022/12/03 15:48:06;;;;;;;63.90;27.13;;;;;;;-0.89;100.00;101252.50;6240808;28;20056;-88
2022/12/03 15:51:07;;;;;;;63.67;25.48;;;;;;;-0.88;100.00;101251.63;6274884;28;20066;-88
2022/12/03 15:54:11;;;;;;;65.28;27.27;;;;;;;-0.87;100.00;101249.06;6328534;28;20048;-88
2022/12/03 15:57:12;;;;;;;59.30;24.92;;;;;;;-0.84;100.00;101253.22;6328836;28;20036;-91
2022/12/03 16:00:15;;;;;;;62.22;26.55;;;;;;;-0.82;100.00;101251.50;6331266;28;20073;-85
2022/12/03 16:03:17;;;;;;;63.75;28.42;;;;;;;-0.82;100.00;101256.59;6334651;28;20043;-87
2022/12/03 16:06:19;;;;;;;61.08;26.73;;;;;;;-0.82;100.00;101253.19;6326928;28;20121;-87
2022/12/03 16:09:21;;;;;;;61.58;26.42;;;;;;;-0.80;100.00;101254.81;6330786;28;20110;-86
2022/12/03 16:12:28;;;;;;;71.63;28.85;;;;;;;-0.81;100.00;101249.78;6326796;28;20063;-87
2022/12/03 16:15:30;;;;;;;67.10;27.52;;;;;;;-0.80;100.00;101244.66;6341553;28;20485;-94
2022/12/03 16:18:31;;;;;;;70.88;30.83;;;;;;;-0.77;100.00;101244.63;6328243;28;20204;-89
2022/12/03 16:21:33;;;;;;;77.70;28.33;;;;;;;-0.79;100.00;101250.59;6329541;28;20040;-89
2022/12/03 16:24:35;;;;;;;66.60;26.58;;;;;;;-0.83;100.00;101249.81;6320405;28;20040;-89
2022/12/03 16:27:37;;;;;;;61.10;25.58;;;;;;;-0.86;100.00;101252.41;6311479;28;20040;-89
2022/12/03 16:30:39;;;;;;;60.65;24.60;;;;;;;-0.85;100.00;101251.53;6314878;28;20043;-86
2022/12/03 16:33:41;;;;;;;65.38;27.23;;;;;;;-0.81;100.00;101253.16;6305374;28;20040;-87
2022/12/03 16:36:44;;;;;;;62.25;26.33;;;;;;;-0.80;100.00;101261.63;6313156;28;20044;-87
2022/12/03 16:39:46;;;;;;;68.30;28.95;;;;;;;-0.77;100.00;101262.41;6292776;28;20424;-87
2022/12/03 16:42:47;;;;;;;63.00;25.88;;;;;;;-0.76;100.00;101255.63;6312153;28;20039;-87
2022/12/03 16:46:00;;;;;;;51.35;23.17;;;;;;;-0.81;100.00;101265.03;6316976;28;20048;-87
2022/12/03 16:49:02;;;;;;;58.42;26.50;;;;;;;-0.80;100.00;101256.53;6315438;28;20486;-87
2022/12/03 16:52:04;;;;;;;62.47;27.65;;;;;;;-0.82;100.00;101254.03;6311129;28;20119;-87
2022/12/03 16:55:06;;;;;;;62.17;25.27;;;;;;;-0.81;100.00;101255.72;6303987;28;20047;-87
2022/12/03 16:58:08;;;;;;;56.17;25.88;;;;;;;-0.83;100.00;101249.81;6310079;28;20115;-87
2022/12/03 17:01:10;;;;;;;59.90;25.63;;;;;;;-0.83;100.00;101247.28;6306725;28;20092;-87
2022/12/03 17:04:12;;;;;;;61.15;25.63;;;;;;;-0.81;100.00;101255.72;6297233;28;20036;-87
2022/12/03 17:07:14;;;;;;;56.58;25.27;;;;;;;-0.77;100.00;101259.88;6312487;28;20048;-88
2022/12/03 17:10:16;;;;;;;57.95;25.60;;;;;;;-0.77;100.00;101254.78;6309114;28;20036;-87
2022/12/03 17:13:18;;;;;;;57.25;25.27;;;;;;;-0.77;100.00;101248.84;6313001;28;20492;-87
2022/12/03 17:16:20;;;;;;;58.13;26.15;;;;;;;-0.78;100.00;101252.25;6302775;28;20028;-87
2022/12/03 17:19:22;;;;;;;52.60;24.00;;;;;;;-0.77;100.00;101261.56;6305273;28;20048;-87
2022/12/03 17:22:24;;;;;;;54.50;24.17;;;;;;;-0.81;100.00;101260.78;6314572;28;20397;-87
2022/12/03 17:25:26;;;;;;;49.30;22.42;;;;;;;-0.82;100.00;101265.91;6309604;28;20051;-88
2022/12/03 17:28:28;;;;;;;57.88;25.55;;;;;;;-0.83;100.00;101270.16;6310785;28;20044;-88
2022/12/03 17:31:30;;;;;;;53.22;23.67;;;;;;;-0.80;100.00;101266.72;6313358;28;20177;-87
2022/12/03 17:34:36;;;;;;;45.72;21.83;;;;;;;-0.79;100.00;101264.16;6310897;28;20028;-87
2022/12/03 17:37:37;;;;;;;52.95;22.92;;;;;;;-0.75;100.00;101264.91;6303251;28;20359;-88
2022/12/03 17:40:39;;;;;;;55.20;23.92;;;;;;;-0.78;100.00;101267.50;6311865;28;20065;-87
2022/12/03 17:43:42;;;;;;;53.15;23.88;;;;;;;-0.79;100.00;101268.41;6317718;28;20044;-87
2022/12/03 17:46:43;;;;;;;56.72;23.90;;;;;;;-0.81;100.00;101265.88;6302077;28;20043;-88
2022/12/03 17:49:45;;;;;;;49.00;21.60;;;;;;;-0.79;100.00;101256.53;6310569;28;20039;-87
2022/12/03 17:52:47;;;;;;;46.38;22.45;;;;;;;-0.79;100.00;101264.16;6312079;28;20378;-88
2022/12/03 17:55:49;;;;;;;55.38;25.08;;;;;;;-0.78;100.00;101263.25;6308976;28;20100;-87
2022/12/03 17:58:51;;;;;;;51.85;23.75;;;;;;;-0.80;100.00;101261.63;6308945;28;20043;-87
2022/12/03 18:01:52;;;;;;;52.53;22.48;;;;;;;-0.80;100.00;101254.81;6310588;28;20510;-87
2022/12/03 18:04:54;;;;;;;57.55;24.20;;;;;;;-0.80;100.00;101259.06;6307303;28;20117;-88
2022/12/03 18:07:56;;;;;;;60.40;24.92;;;;;;;-0.78;100.00;101255.63;6308396;28;20072;-88
2022/12/03 18:10:58;;;;;;;55.95;25.38;;;;;;;-0.78;100.00;101257.34;6312027;28;20048;-88
2022/12/03 18:14:00;;;;;;;49.17;21.88;;;;;;;-0.79;100.00;101256.53;6306524;28;20040;-87
2022/12/03 18:17:02;;;;;;;53.55;23.77;;;;;;;-0.78;100.00;101263.25;6302659;28;20036;-87
2022/12/03 18:20:04;;;;;;;53.85;22.63;;;;;;;-0.77;100.00;101267.50;6305028;28;20133;-88
2022/12/03 18:23:06;;;;;;;48.88;22.50;;;;;;;-0.74;100.00;101258.97;6307920;28;20032;-88
2022/12/03 18:26:08;;;;;;;53.00;23.38;;;;;;;-0.76;100.00;101255.63;6302212;28;20048;-88
2022/12/03 18:29:09;;;;;;;61.20;24.73;;;;;;;-0.78;100.00;101250.56;6308288;28;20044;-88
2022/12/03 18:32:11;;;;;;;58.55;23.83;;;;;;;-0.78;100.00;101250.56;6299566;28;20052;-88
2022/12/03 18:35:29;;;;;;;48.58;22.90;;;;;;;-0.74;100.00;101252.19;6305212;28;20035;-88
2022/12/03 18:38:32;;;;;;;53.45;24.60;;;;;;;-0.76;100.00;101260.69;6316337;28;20044;-88
2022/12/03 18:41:35;;;;;;;49.00;21.80;;;;;;;-0.73;100.00;101258.09;6307560;28;20442;-88
2022/12/03 18:44:37;;;;;;;50.72;22.05;;;;;;;-0.75;100.00;101259.81;6281602;28;20050;-88
2022/12/03 18:47:39;;;;;;;52.90;22.92;;;;;;;-0.73;100.00;101260.63;6310028;28;20093;-88
2022/12/03 18:50:42;;;;;;;53.90;24.92;;;;;;;-0.73;100.00;101261.47;6307414;28;20502;-88
2022/12/03 18:53:44;;;;;;;56.00;24.52;;;;;;;-0.75;100.00;101258.13;6304329;28;20490;-88
2022/12/03 18:56:46;;;;;;;52.53;23.23;;;;;;;-0.76;100.00;101260.69;6307784;28;20040;-88
2022/12/03 18:59:48;;;;;;;55.53;24.90;;;;;;;-0.78;100.00;101249.72;6308035;28;20043;-88
2022/12/03 19:02:50;;;;;;;53.75;23.60;;;;;;;-0.77;100.00;101249.72;6306138;28;20055;-88
2022/12/03 19:06:15;;;;;;;58.83;24.33;;;;;;;-0.78;100.00;101247.19;6299820;28;20067;-88
2022/12/03 19:09:19;;;;;;;57.78;25.15;;;;;;;-0.79;100.00;101241.28;6304103;28;20067;-88
2022/12/03 19:12:21;;;;;;;55.80;24.08;;;;;;;-0.77;100.00;101246.31;6304123;28;20189;-89
2022/12/03 19:15:23;;;;;;;58.05;23.35;;;;;;;-0.76;100.00;101245.44;6306560;28;20047;-88
2022/12/03 19:18:25;;;;;;;54.25;24.85;;;;;;;-0.76;100.00;101243.75;6306542;28;20314;-88
2022/12/03 19:21:27;;;;;;;51.50;23.92;;;;;;;-0.75;100.00;101250.47;6307862;28;20032;-88
2022/12/03 19:24:34;;;;;;;59.50;24.60;;;;;;;-0.75;100.00;101252.19;6307423;28;20086;-88
2022/12/03 19:27:35;;;;;;;53.15;24.70;;;;;;;-0.79;100.00;101242.97;6305259;28;20044;-88
2022/12/03 19:30:37;;;;;;;56.88;23.83;;;;;;;-0.79;100.00;101241.28;6302286;28;20051;-88
2022/12/03 19:33:41;;;;;;;57.55;25.40;;;;;;;-0.84;100.00;101243.06;6302257;28;20051;-88
2022/12/03 19:36:43;;;;;;;58.83;24.60;;;;;;;-0.81;100.00;101248.09;6307622;28;20036;-88
2022/12/03 19:39:45;;;;;;;61.45;24.70;;;;;;;-0.77;100.00;101254.78;6304255;28;20047;-88
2022/12/03 19:42:47;;;;;;;60.13;24.15;;;;;;;-0.76;100.00;101251.38;6307024;28;20603;-88
2022/12/03 19:45:49;;;;;;;54.05;23.35;;;;;;;-0.77;100.00;101251.38;6307335;28;20052;-88
2022/12/03 19:48:52;;;;;;;48.85;22.58;;;;;;;-0.76;100.00;101258.16;6306263;28;20122;-88
2022/12/03 19:51:54;;;;;;;60.65;25.05;;;;;;;-0.74;100.00;101261.50;6299987;28;20051;-88
2022/12/03 19:54:56;;;;;;;52.90;23.30;;;;;;;-0.76;100.00;101256.44;6302105;28;20313;-88
2022/12/03 19:57:57;;;;;;;58.50;24.35;;;;;;;-0.73;100.00;101256.38;6306685;28;20048;-88
2022/12/03 20:01:14;;;;;;;58.60;22.67;;;;;;;-0.70;100.00;101263.09;6311110;28;20502;-88
2022/12/03 20:04:16;;;;;;;56.15;23.35;;;;;;;-0.70;100.00;101256.31;6309611;28;20856;-88
2022/12/03 20:07:18;;;;;;;60.13;24.58;;;;;;;-0.71;100.00;101252.09;6314197;28;20032;-88
2022/12/03 20:10:20;;;;;;;63.28;25.23;;;;;;;-0.74;100.00;101256.44;6304975;28;20048;-88
2022/12/03 20:13:21;;;;;;;57.65;25.25;;;;;;;-0.76;100.00;101261.53;6311063;28;20044;-88
2022/12/03 20:16:24;;;;;;;54.83;23.45;;;;;;;-0.74;100.00;101262.34;6305788;28;20047;-88
2022/12/03 20:19:26;;;;;;;52.95;24.17;;;;;;;-0.72;100.00;101254.66;6307528;28;20036;-88
2022/12/03 20:22:27;;;;;;;59.75;23.50;;;;;;;-0.75;100.00;101260.66;6309321;28;20047;-88
2022/12/03 20:25:29;;;;;;;62.55;26.88;;;;;;;-0.81;100.00;101252.34;6310290;28;20039;-88
2022/12/03 20:28:31;;;;;;;61.08;25.83;;;;;;;-0.81;100.00;101263.34;6311841;28;20059;-89
2022/12/03 20:31:33;;;;;;;58.17;24.08;;;;;;;-0.81;100.00;101255.72;6308082;28;20036;-88
2022/12/03 20:34:35;;;;;;;56.47;24.88;;;;;;;-0.75;100.00;101254.75;6310582;28;20044;-88
2022/12/03 20:37:36;;;;;;;61.42;24.58;;;;;;;-0.79;100.00;101259.06;6304798;28;20512;-88
2022/12/03 20:40:38;;;;;;;55.17;23.13;;;;;;;-0.79;100.00;101259.06;6307035;28;20051;-88
2022/12/03 20:43:40;;;;;;;55.80;22.52;;;;;;;-0.80;100.00;101252.28;6311358;28;20577;-88
2022/12/03 20:46:42;;;;;;;60.05;23.95;;;;;;;-0.79;100.00;101263.31;6310559;28;20124;-88
2022/12/03 20:49:45;;;;;;;59.80;23.83;;;;;;;-0.80;100.00;101261.63;6309080;28;20053;-88
2022/12/03 20:52:47;;;;;;;57.03;24.70;;;;;;;-0.80;100.00;101254.81;6310280;28;20032;-88
2022/12/03 20:56:09;;;;;;;56.13;24.10;;;;;;;-0.81;100.00;101253.16;6307346;28;20408;-89
2022/12/03 20:59:14;;;;;;;58.85;24.73;;;;;;;-0.78;100.00;101255.63;6317251;28;20074;-88
2022/12/03 21:02:15;;;;;;;56.50;23.95;;;;;;;-0.83;100.00;101249.81;6305519;28;20036;-88
2022/12/03 21:05:17;;;;;;;58.10;24.67;;;;;;;-0.80;100.00;101256.53;6306184;28;20056;-88
2022/12/03 21:08:19;;;;;;;57.53;23.00;;;;;;;-0.79;100.00;101246.34;6306254;28;20171;-88
2022/12/03 21:11:41;;;;;;;54.80;23.88;;;;;;;-0.76;100.00;101250.53;6303113;28;20048;-88
2022/12/03 21:14:43;;;;;;;53.60;22.85;;;;;;;-0.75;100.00;101254.75;6311896;28;20036;-88
2022/12/03 21:17:45;;;;;;;55.90;22.88;;;;;;;-0.76;100.00;101250.53;6304627;28;20032;-88
2022/12/03 21:20:46;;;;;;;58.13;22.40;;;;;;;-0.72;100.00;101252.13;6310344;28;20380;-88
2022/12/03 21:23:48;;;;;;;50.30;22.05;;;;;;;-0.75;100.00;101250.47;6309060;28;20035;-88
2022/12/03 21:26:50;;;;;;;54.15;22.75;;;;;;;-0.77;100.00;101252.25;6309968;28;20154;-88
2022/12/03 21:29:52;;;;;;;53.20;22.80;;;;;;;-0.75;100.00;101245.41;6300164;28;20151;-88
2022/12/03 21:32:54;;;;;;;54.95;23.60;;;;;;;-0.77;100.00;101247.16;6309656;28;20036;-88
2022/12/03 21:35:56;;;;;;;60.17;26.40;;;;;;;-0.75;100.00;101250.47;6314388;28;20047;-88
2022/12/03 21:38:58;;;;;;;56.28;23.48;;;;;;;-0.75;100.00;101250.47;6318740;28;20050;-88
2022/12/03 21:42:00;;;;;;;53.13;22.20;;;;;;;-0.76;100.00;101251.38;6314199;28;20039;-88
2022/12/03 21:45:23;;;;;;;55.97;22.45;;;;;;;-0.75;100.00;101258.13;6315355;28;20123;-88
2022/12/03 21:48:25;;;;;;;55.90;24.83;;;;;;;-0.75;100.00;101255.56;6309389;28;20036;-88
2022/12/03 21:51:27;;;;;;;56.67;22.52;;;;;;;-0.73;100.00;101253.00;6309593;28;20473;-88
2022/12/03 21:54:29;;;;;;;54.20;22.02;;;;;;;-0.73;100.00;101264.00;6303140;28;20510;-88
2022/12/03 21:57:33;;;;;;;57.10;23.52;;;;;;;-0.71;100.00;101259.72;6326371;28;20044;-88
2022/12/03 22:00:35;;;;;;;54.10;22.13;;;;;;;-0.70;100.00;101261.41;6308012;28;20036;-88
2022/12/03 22:03:37;;;;;;;56.28;22.08;;;;;;;-0.73;100.00;101256.38;6311772;28;20485;-88
2022/12/03 22:06:38;;;;;;;62.33;24.25;;;;;;;-0.71;100.00;101256.38;6317885;28;20128;-88
2022/12/03 22:09:40;;;;;;;57.38;23.33;;;;;;;-0.70;100.00;101258.03;6308679;28;20032;-88
2022/12/03 22:12:42;;;;;;;55.08;23.92;;;;;;;-0.71;100.00;101258.91;6301846;28;20044;-88
2022/12/03 22:15:43;;;;;;;52.28;22.98;;;;;;;-0.73;100.00;101258.09;6309981;28;20158;-88
2022/12/03 22:18:46;;;;;;;61.80;24.40;;;;;;;-0.72;100.00;101258.06;6306872;28;20028;-88
2022/12/03 22:21:47;;;;;;;62.88;24.13;;;;;;;-0.72;100.00;101257.22;6315146;28;20564;-89
2022/12/03 22:24:49;;;;;;;58.90;24.40;;;;;;;-0.72;100.00;101247.91;6305882;28;20129;-88
2022/12/03 22:27:51;;;;;;;63.97;24.48;;;;;;;-0.71;100.00;101254.66;6302703;28;20044;-88
2022/12/03 22:30:53;;;;;;;57.13;23.33;;;;;;;-0.73;100.00;101243.66;6306221;28;20056;-88
2022/12/03 22:33:55;;;;;;;63.70;23.98;;;;;;;-0.75;100.00;101247.94;6296563;28;20044;-88
2022/12/03 22:36:57;;;;;;;63.47;24.98;;;;;;;-0.74;100.00;101246.25;6307514;28;20062;-88
2022/12/03 22:39:58;;;;;;;58.67;23.73;;;;;;;-0.77;100.00;101244.63;6307653;28;20044;-88
2022/12/03 22:43:00;;;;;;;65.80;25.02;;;;;;;-0.78;100.00;101237.84;6306819;28;20063;-89
2022/12/03 22:46:03;;;;;;;60.30;22.92;;;;;;;-0.73;100.00;101235.22;6309209;28;20036;-88
2022/12/03 22:49:05;;;;;;;66.68;23.30;;;;;;;-0.72;100.00;101236.88;6309376;28;20047;-88
2022/12/03 22:52:08;;;;;;;57.53;23.48;;;;;;;-0.74;100.00;101233.56;6307430;28;20055;-88
2022/12/03 22:55:10;;;;;;;60.60;24.67;;;;;;;-0.75;100.00;101230.16;6314095;28;20251;-88
2022/12/03 22:58:11;;;;;;;63.38;23.33;;;;;;;-0.75;100.00;101222.53;6303851;28;20036;-89
2022/12/03 23:01:29;;;;;;;63.90;25.98;;;;;;;-0.75;100.00;101214.91;6306675;28;20557;-88
2022/12/03 23:04:31;;;;;;;58.53;23.67;;;;;;;-0.77;100.00;101216.66;6304907;28;20040;-88
2022/12/03 23:07:32;;;;;;;64.13;24.42;;;;;;;-0.75;100.00;101226.78;6304596;28;20044;-88
2022/12/03 23:10:37;;;;;;;60.90;24.25;;;;;;;-0.78;100.00;101219.22;6306546;28;20048;-88
2022/12/03 23:13:38;;;;;;;60.55;23.80;;;;;;;-0.79;100.00;101220.09;6310930;28;20039;-88
2022/12/03 23:16:40;;;;;;;66.15;24.73;;;;;;;-0.78;100.00;101209.88;6308420;28;20036;-88
2022/12/03 23:19:42;;;;;;;64.90;24.80;;;;;;;-0.76;100.00;101204.78;6304335;28;20040;-88
2022/12/03 23:22:43;;;;;;;54.95;22.17;;;;;;;-0.78;100.00;101209.06;6304192;28;20115;-88
2022/12/03 23:26:02;;;;;;;59.60;22.60;;;;;;;-0.77;100.00;101208.19;6307492;28;20040;-88
2022/12/03 23:29:05;;;;;;;62.58;24.85;;;;;;;-0.75;100.00;101207.28;6304309;28;20504;-88
2022/12/03 23:32:07;;;;;;;65.88;24.80;;;;;;;-0.71;100.00;101205.53;6301509;28;20051;-88
2022/12/03 23:35:11;;;;;;;66.40;24.88;;;;;;;-0.72;100.00;101206.38;6308307;28;20047;-88
2022/12/03 23:38:12;;;;;;;69.45;25.67;;;;;;;-0.75;100.00;101199.66;6312107;28;20070;-89
2022/12/03 23:41:18;;;;;;;61.85;25.17;;;;;;;-0.76;100.00;101203.06;6309834;28;20043;-88
2022/12/03 23:44:21;;;;;;;63.42;24.20;;;;;;;-0.75;100.00;101203.91;6318553;28;20487;-88
2022/12/03 23:47:23;;;;;;;66.88;22.70;;;;;;;-0.78;100.00;101201.44;6319364;28;20036;-88
2022/12/03 23:50:25;;;;;;;64.68;24.65;;;;;;;-0.76;100.00;101205.63;6310249;28;20512;-88
2022/12/03 23:53:28;;;;;;;71.75;27.50;;;;;;;-0.74;100.00;101205.59;6324009;28;20129;-89
2022/12/03 23:56:30;;;;;;;64.00;24.83;;;;;;;-0.76;100.00;101205.63;6309689;28;20109;-89
2022/12/03 23:59:31;;;;;;;66.38;25.52;;;;;;;-0.78;100.00;101202.25;6311172;28;20028;-89
